sensor_id;sensor_type;location;lat;lon;timestamp;P1;durP1;ratioP1;P2;durP2;ratioP2
2035;SDS011;23642;42.658;23.350;2022-11-20T00:01:30;87.73;;;81.83;;
2035;SDS011;23642;42.658;23.350;2022-11-20T00:03:57;86.20;;;80.10;;
2035;SDS011;23642;42.658;23.350;2022-11-20T00:06:26;84.20;;;78.53;;
2035;SDS011;23642;42.658;23.350;2022-11-20T00:08:57;85.20;;;79.40;;
2035;SDS011;23642;42.658;23.350;2022-11-20T00:11:28;81.50;;;75.93;;
2035;SDS011;23642;42.658;23.350;2022-11-20T00:13:56;80.03;;;74.63;;
2035;SDS011;23642;42.658;23.350;2022-11-20T00:16:31;79.70;;;74.00;;
2035;SDS011;23642;42.658;23.350;2022-11-20T00:18:59;77.00;;;71.60;;
2035;SDS011;23642;42.658;23.350;2022-11-20T00:21:26;80.60;;;74.90;;
2035;SDS011;23642;42.658;23.350;2022-11-20T00:23:55;79.00;;;73.77;;
2035;SDS011;23642;42.658;23.350;2022-11-20T00:26:23;83.10;;;77.50;;
2035;SDS011;23642;42.658;23.350;2022-11-20T00:28:53;83.40;;;77.80;;
2035;SDS011;23642;42.658;23.350;2022-11-20T00:31:21;82.80;;;77.40;;
2035;SDS011;23642;42.658;23.350;2022-11-20T00:33:48;84.47;;;78.77;;
2035;SDS011;23642;42.658;23.350;2022-11-20T00:36:17;85.70;;;80.20;;
2035;SDS011;23642;42.658;23.350;2022-11-20T00:38:45;86.03;;;80.27;;
2035;SDS011;23642;42.658;23.350;2022-11-20T00:41:13;90.47;;;84.70;;
2035;SDS011;23642;42.658;23.350;2022-11-20T00:43:41;93.57;;;87.67;;
2035;SDS011;23642;42.658;23.350;2022-11-20T00:46:14;94.23;;;88.23;;
2035;SDS011;23642;42.658;23.350;2022-11-20T00:48:42;92.87;;;86.90;;
2035;SDS011;23642;42.658;23.350;2022-11-20T00:51:12;95.53;;;89.50;;
2035;SDS011;23642;42.658;23.350;2022-11-20T00:53:46;97.30;;;91.20;;
2035;SDS011;23642;42.658;23.350;2022-11-20T00:56:13;97.87;;;91.50;;
2035;SDS011;23642;42.658;23.350;2022-11-20T00:58:42;99.70;;;93.20;;
2035;SDS011;23642;42.658;23.350;2022-11-20T01:01:10;100.60;;;94.70;;
2035;SDS011;23642;42.658;23.350;2022-11-20T01:03:40;100.33;;;94.03;;
2035;SDS011;23642;42.658;23.350;2022-11-20T01:06:10;98.20;;;92.30;;
2035;SDS011;23642;42.658;23.350;2022-11-20T01:08:39;100.20;;;94.40;;
2035;SDS011;23642;42.658;23.350;2022-11-20T01:11:07;102.60;;;96.50;;
2035;SDS011;23642;42.658;23.350;2022-11-20T01:13:36;102.10;;;96.07;;
2035;SDS011;23642;42.658;23.350;2022-11-20T01:16:04;102.27;;;96.27;;
2035;SDS011;23642;42.658;23.350;2022-11-20T01:18:35;104.07;;;98.17;;
2035;SDS011;23642;42.658;23.350;2022-11-20T01:24:19;103.67;;;97.63;;
2035;SDS011;23642;42.658;23.350;2022-11-20T01:26:56;106.80;;;100.60;;
2035;SDS011;23642;42.658;23.350;2022-11-20T01:29:31;104.50;;;98.50;;
2035;SDS011;23642;42.658;23.350;2022-11-20T01:32:01;103.93;;;98.03;;
2035;SDS011;23642;42.658;23.350;2022-11-20T01:34:30;103.03;;;97.13;;
2035;SDS011;23642;42.658;23.350;2022-11-20T01:36:57;106.40;;;100.30;;
2035;SDS011;23642;42.658;23.350;2022-11-20T01:39:26;102.80;;;96.90;;
2035;SDS011;23642;42.658;23.350;2022-11-20T01:41:59;105.73;;;99.73;;
2035;SDS011;23642;42.658;23.350;2022-11-20T01:44:46;105.33;;;99.23;;
2035;SDS011;23642;42.658;23.350;2022-11-20T01:47:17;106.40;;;100.20;;
2035;SDS011;23642;42.658;23.350;2022-11-20T01:52:51;103.40;;;97.50;;
2035;SDS011;23642;42.658;23.350;2022-11-20T01:55:25;106.33;;;100.33;;
2035;SDS011;23642;42.658;23.350;2022-11-20T01:57:55;105.03;;;98.93;;
2035;SDS011;23642;42.658;23.350;2022-11-20T02:00:41;104.43;;;98.20;;
2035;SDS011;23642;42.658;23.350;2022-11-20T02:03:12;104.00;;;98.00;;
2035;SDS011;23642;42.658;23.350;2022-11-20T02:05:45;102.40;;;96.60;;
2035;SDS011;23642;42.658;23.350;2022-11-20T02:08:16;102.30;;;96.20;;
2035;SDS011;23642;42.658;23.350;2022-11-20T02:10:47;104.37;;;98.40;;
2035;SDS011;23642;42.658;23.350;2022-11-20T02:13:14;105.00;;;99.00;;
2035;SDS011;23642;42.658;23.350;2022-11-20T02:15:59;104.50;;;98.50;;
2035;SDS011;23642;42.658;23.350;2022-11-20T02:18:30;103.43;;;97.43;;
2035;SDS011;23642;42.658;23.350;2022-11-20T02:21:00;104.70;;;98.70;;
2035;SDS011;23642;42.658;23.350;2022-11-20T02:23:33;104.83;;;98.93;;
2035;SDS011;23642;42.658;23.350;2022-11-20T02:26:10;103.27;;;97.30;;
2035;SDS011;23642;42.658;23.350;2022-11-20T02:28:40;102.80;;;97.00;;
2035;SDS011;23642;42.658;23.350;2022-11-20T02:31:10;102.50;;;96.63;;
2035;SDS011;23642;42.658;23.350;2022-11-20T02:33:38;101.77;;;95.80;;
2035;SDS011;23642;42.658;23.350;2022-11-20T02:36:07;104.53;;;98.37;;
2035;SDS011;23642;42.658;23.350;2022-11-20T02:38:40;105.37;;;99.30;;
2035;SDS011;23642;42.658;23.350;2022-11-20T02:41:15;102.43;;;96.63;;
2035;SDS011;23642;42.658;23.350;2022-11-20T02:43:44;103.83;;;97.93;;
2035;SDS011;23642;42.658;23.350;2022-11-20T02:46:11;104.20;;;98.40;;
2035;SDS011;23642;42.658;23.350;2022-11-20T02:48:38;105.43;;;99.57;;
2035;SDS011;23642;42.658;23.350;2022-11-20T02:51:06;105.03;;;99.23;;
2035;SDS011;23642;42.658;23.350;2022-11-20T02:53:34;102.67;;;96.80;;
2035;SDS011;23642;42.658;23.350;2022-11-20T02:56:01;104.10;;;98.00;;
2035;SDS011;23642;42.658;23.350;2022-11-20T02:58:30;100.80;;;94.40;;
2035;SDS011;23642;42.658;23.350;2022-11-20T03:00:59;101.30;;;95.50;;
2035;SDS011;23642;42.658;23.350;2022-11-20T03:03:30;105.23;;;99.50;;
2035;SDS011;23642;42.658;23.350;2022-11-20T03:05:59;103.07;;;96.70;;
2035;SDS011;23642;42.658;23.350;2022-11-20T03:08:29;102.20;;;96.40;;
2035;SDS011;23642;42.658;23.350;2022-11-20T03:10:57;101.67;;;95.97;;
2035;SDS011;23642;42.658;23.350;2022-11-20T03:13:33;104.07;;;98.17;;
2035;SDS011;23642;42.658;23.350;2022-11-20T03:16:04;101.03;;;95.33;;
2035;SDS011;23642;42.658;23.350;2022-11-20T03:18:33;104.17;;;98.00;;
2035;SDS011;23642;42.658;23.350;2022-11-20T03:20:59;103.40;;;97.33;;
2035;SDS011;23642;42.658;23.350;2022-11-20T03:23:28;104.23;;;98.43;;
2035;SDS011;23642;42.658;23.350;2022-11-20T03:26:06;101.03;;;95.40;;
2035;SDS011;23642;42.658;23.350;2022-11-20T03:28:38;101.70;;;96.10;;
2035;SDS011;23642;42.658;23.350;2022-11-20T03:31:08;101.90;;;96.10;;
2035;SDS011;23642;42.658;23.350;2022-11-20T03:33:39;105.20;;;99.40;;
2035;SDS011;23642;42.658;23.350;2022-11-20T03:36:08;101.80;;;96.20;;
2035;SDS011;23642;42.658;23.350;2022-11-20T03:38:36;100.17;;;94.37;;
2035;SDS011;23642;42.658;23.350;2022-11-20T03:41:07;101.43;;;95.83;;
2035;SDS011;23642;42.658;23.350;2022-11-20T03:43:46;102.27;;;96.60;;
2035;SDS011;23642;42.658;23.350;2022-11-20T03:46:14;105.00;;;99.00;;
2035;SDS011;23642;42.658;23.350;2022-11-20T03:48:42;101.80;;;96.10;;
2035;SDS011;23642;42.658;23.350;2022-11-20T03:51:12;104.27;;;98.47;;
2035;SDS011;23642;42.658;23.350;2022-11-20T03:53:40;103.57;;;97.57;;
2035;SDS011;23642;42.658;23.350;2022-11-20T03:56:16;103.27;;;97.57;;
2035;SDS011;23642;42.658;23.350;2022-11-20T03:58:48;106.50;;;100.50;;
2035;SDS011;23642;42.658;23.350;2022-11-20T04:01:17;105.33;;;99.10;;
2035;SDS011;23642;42.658;23.350;2022-11-20T04:03:45;102.27;;;96.37;;
2035;SDS011;23642;42.658;23.350;2022-11-20T04:06:17;100.43;;;94.73;;
2035;SDS011;23642;42.658;23.350;2022-11-20T04:08:48;104.53;;;98.67;;
2035;SDS011;23642;42.658;23.350;2022-11-20T04:11:19;105.13;;;99.23;;
2035;SDS011;23642;42.658;23.350;2022-11-20T04:13:52;105.40;;;99.60;;
2035;SDS011;23642;42.658;23.350;2022-11-20T04:16:20;103.70;;;97.90;;
2035;SDS011;23642;42.658;23.350;2022-11-20T04:18:51;103.77;;;97.90;;
2035;SDS011;23642;42.658;23.350;2022-11-20T04:21:20;106.30;;;100.20;;
2035;SDS011;23642;42.658;23.350;2022-11-20T04:23:47;105.17;;;99.27;;
2035;SDS011;23642;42.658;23.350;2022-11-20T04:26:14;106.67;;;100.33;;
2035;SDS011;23642;42.658;23.350;2022-11-20T04:28:42;104.53;;;98.83;;
2035;SDS011;23642;42.658;23.350;2022-11-20T04:31:10;103.10;;;97.33;;
2035;SDS011;23642;42.658;23.350;2022-11-20T04:33:41;103.70;;;97.67;;
2035;SDS011;23642;42.658;23.350;2022-11-20T04:36:10;102.13;;;96.50;;
2035;SDS011;23642;42.658;23.350;2022-11-20T04:38:38;104.07;;;98.27;;
2035;SDS011;23642;42.658;23.350;2022-11-20T04:41:09;102.80;;;97.00;;
2035;SDS011;23642;42.658;23.350;2022-11-20T04:43:45;99.63;;;94.03;;
2035;SDS011;23642;42.658;23.350;2022-11-20T04:46:18;101.60;;;95.80;;
2035;SDS011;23642;42.658;23.350;2022-11-20T04:48:48;100.43;;;94.73;;
2035;SDS011;23642;42.658;23.350;2022-11-20T04:51:15;103.57;;;97.43;;
2035;SDS011;23642;42.658;23.350;2022-11-20T04:53:42;102.10;;;96.30;;
2035;SDS011;23642;42.658;23.350;2022-11-20T04:56:13;100.73;;;95.13;;
2035;SDS011;23642;42.658;23.350;2022-11-20T04:58:40;99.17;;;93.40;;
2035;SDS011;23642;42.658;23.350;2022-11-20T05:01:09;103.20;;;97.50;;
2035;SDS011;23642;42.658;23.350;2022-11-20T05:03:39;104.20;;;98.30;;
2035;SDS011;23642;42.658;23.350;2022-11-20T05:06:08;103.20;;;97.20;;
2035;SDS011;23642;42.658;23.350;2022-11-20T05:08:37;103.50;;;97.80;;
2035;SDS011;23642;42.658;23.350;2022-11-20T05:11:05;104.33;;;98.63;;
2035;SDS011;23642;42.658;23.350;2022-11-20T05:13:34;103.70;;;98.00;;
2035;SDS011;23642;42.658;23.350;2022-11-20T05:16:01;104.73;;;98.87;;
2035;SDS011;23642;42.658;23.350;2022-11-20T05:18:39;105.40;;;99.60;;
2035;SDS011;23642;42.658;23.350;2022-11-20T05:21:08;104.77;;;98.87;;
2035;SDS011;23642;42.658;23.350;2022-11-20T05:23:36;102.50;;;96.60;;
2035;SDS011;23642;42.658;23.350;2022-11-20T05:36:38;100.23;;;94.33;;
2035;SDS011;23642;42.658;23.350;2022-11-20T05:42:30;101.73;;;95.77;;
2035;SDS011;23642;42.658;23.350;2022-11-20T05:45:04;101.30;;;95.50;;
2035;SDS011;23642;42.658;23.350;2022-11-20T05:47:33;100.83;;;94.83;;
2035;SDS011;23642;42.658;23.350;2022-11-20T05:50:00;101.40;;;95.40;;
2035;SDS011;23642;42.658;23.350;2022-11-20T05:52:32;99.43;;;93.63;;
2035;SDS011;23642;42.658;23.350;2022-11-20T05:55:01;100.03;;;94.13;;
2035;SDS011;23642;42.658;23.350;2022-11-20T05:57:31;101.20;;;95.00;;
2035;SDS011;23642;42.658;23.350;2022-11-20T05:59:59;98.17;;;92.27;;
2035;SDS011;23642;42.658;23.350;2022-11-20T06:02:29;99.10;;;93.00;;
2035;SDS011;23642;42.658;23.350;2022-11-20T06:04:56;98.43;;;92.10;;
2035;SDS011;23642;42.658;23.350;2022-11-20T06:07:25;99.53;;;93.63;;
2035;SDS011;23642;42.658;23.350;2022-11-20T06:10:04;98.90;;;92.70;;
2035;SDS011;23642;42.658;23.350;2022-11-20T06:12:32;98.27;;;92.30;;
2035;SDS011;23642;42.658;23.350;2022-11-20T06:15:08;96.60;;;90.50;;
2035;SDS011;23642;42.658;23.350;2022-11-20T06:17:44;97.03;;;90.80;;
2035;SDS011;23642;42.658;23.350;2022-11-20T06:20:14;96.30;;;90.50;;
2035;SDS011;23642;42.658;23.350;2022-11-20T06:22:42;96.30;;;90.20;;
2035;SDS011;23642;42.658;23.350;2022-11-20T06:25:13;96.57;;;90.10;;
2035;SDS011;23642;42.658;23.350;2022-11-20T06:27:43;94.80;;;88.67;;
2035;SDS011;23642;42.658;23.350;2022-11-20T06:30:14;93.87;;;87.93;;
2035;SDS011;23642;42.658;23.350;2022-11-20T06:32:43;94.50;;;88.70;;
2035;SDS011;23642;42.658;23.350;2022-11-20T06:35:10;92.60;;;86.70;;
2035;SDS011;23642;42.658;23.350;2022-11-20T06:37:37;96.13;;;90.10;;
2035;SDS011;23642;42.658;23.350;2022-11-20T06:40:15;94.47;;;88.37;;
2035;SDS011;23642;42.658;23.350;2022-11-20T06:42:42;94.80;;;88.70;;
2035;SDS011;23642;42.658;23.350;2022-11-20T06:45:09;94.57;;;88.60;;
2035;SDS011;23642;42.658;23.350;2022-11-20T06:47:38;95.10;;;88.63;;
2035;SDS011;23642;42.658;23.350;2022-11-20T06:50:05;97.47;;;91.17;;
2035;SDS011;23642;42.658;23.350;2022-11-20T06:52:32;95.93;;;89.63;;
2035;SDS011;23642;42.658;23.350;2022-11-20T06:55:00;97.23;;;90.63;;
2035;SDS011;23642;42.658;23.350;2022-11-20T06:57:34;94.20;;;88.10;;
2035;SDS011;23642;42.658;23.350;2022-11-20T07:00:05;92.57;;;86.57;;
2035;SDS011;23642;42.658;23.350;2022-11-20T07:02:33;92.77;;;86.77;;
2035;SDS011;23642;42.658;23.350;2022-11-20T07:05:00;93.60;;;86.97;;
2035;SDS011;23642;42.658;23.350;2022-11-20T07:07:29;94.10;;;87.77;;
2035;SDS011;23642;42.658;23.350;2022-11-20T07:09:57;96.90;;;90.80;;
2035;SDS011;23642;42.658;23.350;2022-11-20T07:12:24;97.70;;;91.60;;
2035;SDS011;23642;42.658;23.350;2022-11-20T07:15:00;96.37;;;90.47;;
2035;SDS011;23642;42.658;23.350;2022-11-20T07:17:32;97.20;;;90.90;;
2035;SDS011;23642;42.658;23.350;2022-11-20T07:20:01;95.97;;;89.97;;
2035;SDS011;23642;42.658;23.350;2022-11-20T07:22:28;94.30;;;88.10;;
2035;SDS011;23642;42.658;23.350;2022-11-20T07:24:54;94.50;;;88.30;;
2035;SDS011;23642;42.658;23.350;2022-11-20T07:27:25;93.83;;;87.90;;
2035;SDS011;23642;42.658;23.350;2022-11-20T07:29:54;94.40;;;88.50;;
2035;SDS011;23642;42.658;23.350;2022-11-20T07:32:27;94.90;;;88.80;;
2035;SDS011;23642;42.658;23.350;2022-11-20T07:34:56;94.57;;;88.67;;
2035;SDS011;23642;42.658;23.350;2022-11-20T07:37:29;95.23;;;89.13;;
2035;SDS011;23642;42.658;23.350;2022-11-20T07:39:58;96.73;;;90.47;;
2035;SDS011;23642;42.658;23.350;2022-11-20T07:42:25;94.03;;;87.90;;
2035;SDS011;23642;42.658;23.350;2022-11-20T07:44:55;94.43;;;88.23;;
2035;SDS011;23642;42.658;23.350;2022-11-20T07:47:22;91.30;;;85.40;;
2035;SDS011;23642;42.658;23.350;2022-11-20T07:49:53;94.07;;;87.77;;
2035;SDS011;23642;42.658;23.350;2022-11-20T07:52:21;93.73;;;87.73;;
2035;SDS011;23642;42.658;23.350;2022-11-20T07:55:06;92.43;;;86.17;;
2035;SDS011;23642;42.658;23.350;2022-11-20T07:58:07;94.10;;;87.83;;
2035;SDS011;23642;42.658;23.350;2022-11-20T08:00:39;92.03;;;85.83;;
2035;SDS011;23642;42.658;23.350;2022-11-20T08:03:23;92.40;;;86.33;;
2035;SDS011;23642;42.658;23.350;2022-11-20T08:05:56;94.03;;;87.87;;
2035;SDS011;23642;42.658;23.350;2022-11-20T08:08:27;93.17;;;87.13;;
2035;SDS011;23642;42.658;23.350;2022-11-20T08:10:59;94.53;;;88.43;;
2035;SDS011;23642;42.658;23.350;2022-11-20T08:13:46;90.87;;;84.97;;
2035;SDS011;23642;42.658;23.350;2022-11-20T08:16:35;92.33;;;86.13;;
2035;SDS011;23642;42.658;23.350;2022-11-20T08:19:02;91.63;;;85.73;;
2035;SDS011;23642;42.658;23.350;2022-11-20T08:21:32;91.23;;;84.97;;
2035;SDS011;23642;42.658;23.350;2022-11-20T08:24:00;91.90;;;85.90;;
2035;SDS011;23642;42.658;23.350;2022-11-20T08:26:31;92.20;;;86.20;;
2035;SDS011;23642;42.658;23.350;2022-11-20T08:28:58;91.33;;;85.00;;
2035;SDS011;23642;42.658;23.350;2022-11-20T08:31:36;92.50;;;86.30;;
2035;SDS011;23642;42.658;23.350;2022-11-20T08:34:13;93.80;;;87.70;;
2035;SDS011;23642;42.658;23.350;2022-11-20T08:36:41;91.37;;;85.17;;
2035;SDS011;23642;42.658;23.350;2022-11-20T08:39:16;90.23;;;84.13;;
2035;SDS011;23642;42.658;23.350;2022-11-20T08:42:06;93.90;;;87.90;;
2035;SDS011;23642;42.658;23.350;2022-11-20T08:44:33;94.63;;;88.43;;
2035;SDS011;23642;42.658;23.350;2022-11-20T08:47:00;93.00;;;86.80;;
2035;SDS011;23642;42.658;23.350;2022-11-20T08:49:32;91.47;;;85.67;;
2035;SDS011;23642;42.658;23.350;2022-11-20T08:52:01;93.70;;;87.40;;
2035;SDS011;23642;42.658;23.350;2022-11-20T08:54:46;91.93;;;85.90;;
2035;SDS011;23642;42.658;23.350;2022-11-20T08:57:16;92.97;;;86.57;;
2035;SDS011;23642;42.658;23.350;2022-11-20T08:59:44;91.97;;;85.57;;
2035;SDS011;23642;42.658;23.350;2022-11-20T09:02:13;93.00;;;86.60;;
2035;SDS011;23642;42.658;23.350;2022-11-20T09:04:49;93.67;;;86.90;;
2035;SDS011;23642;42.658;23.350;2022-11-20T09:07:26;92.43;;;86.53;;
2035;SDS011;23642;42.658;23.350;2022-11-20T09:09:59;93.33;;;87.03;;
2035;SDS011;23642;42.658;23.350;2022-11-20T09:15:16;102.83;;;96.00;;
2035;SDS011;23642;42.658;23.350;2022-11-20T09:17:52;103.90;;;97.10;;
2035;SDS011;23642;42.658;23.350;2022-11-20T09:20:28;102.50;;;95.60;;
2035;SDS011;23642;42.658;23.350;2022-11-20T09:23:12;97.20;;;90.53;;
2035;SDS011;23642;42.658;23.350;2022-11-20T09:25:40;97.90;;;91.40;;
2035;SDS011;23642;42.658;23.350;2022-11-20T09:28:12;98.60;;;92.00;;
2035;SDS011;23642;42.658;23.350;2022-11-20T09:30:54;98.20;;;91.70;;
2035;SDS011;23642;42.658;23.350;2022-11-20T09:33:21;95.53;;;89.03;;
2035;SDS011;23642;42.658;23.350;2022-11-20T09:35:51;92.60;;;86.33;;
2035;SDS011;23642;42.658;23.350;2022-11-20T09:38:43;91.50;;;85.40;;
2035;SDS011;23642;42.658;23.350;2022-11-20T09:41:19;90.57;;;84.03;;
2035;SDS011;23642;42.658;23.350;2022-11-20T09:44:04;90.50;;;84.17;;
2035;SDS011;23642;42.658;23.350;2022-11-20T09:46:47;83.37;;;77.67;;
2035;SDS011;23642;42.658;23.350;2022-11-20T09:49:23;82.10;;;76.00;;
2035;SDS011;23642;42.658;23.350;2022-11-20T09:52:00;83.13;;;77.43;;
2035;SDS011;23642;42.658;23.350;2022-11-20T09:54:35;81.40;;;75.53;;
2035;SDS011;23642;42.658;23.350;2022-11-20T09:57:08;78.43;;;72.77;;
2035;SDS011;23642;42.658;23.350;2022-11-20T09:59:45;77.87;;;72.37;;
2035;SDS011;23642;42.658;23.350;2022-11-20T10:02:25;73.93;;;68.70;;
2035;SDS011;23642;42.658;23.350;2022-11-20T10:05:06;78.37;;;72.73;;
2035;SDS011;23642;42.658;23.350;2022-11-20T10:07:47;80.20;;;74.50;;
2035;SDS011;23642;42.658;23.350;2022-11-20T10:10:26;79.90;;;74.20;;
2035;SDS011;23642;42.658;23.350;2022-11-20T10:13:09;78.27;;;72.87;;
2035;SDS011;23642;42.658;23.350;2022-11-20T10:15:57;83.00;;;77.30;;
2035;SDS011;23642;42.658;23.350;2022-11-20T10:18:48;84.63;;;78.73;;
2035;SDS011;23642;42.658;23.350;2022-11-20T10:21:27;84.27;;;78.47;;
2035;SDS011;23642;42.658;23.350;2022-11-20T10:24:24;87.00;;;80.87;;
2035;SDS011;23642;42.658;23.350;2022-11-20T10:27:23;87.10;;;80.97;;
2035;SDS011;23642;42.658;23.350;2022-11-20T10:30:34;85.70;;;79.80;;
2035;SDS011;23642;42.658;23.350;2022-11-20T10:33:25;85.50;;;79.60;;
2035;SDS011;23642;42.658;23.350;2022-11-20T10:36:00;85.77;;;79.67;;
2035;SDS011;23642;42.658;23.350;2022-11-20T10:38:42;87.67;;;81.37;;
2035;SDS011;23642;42.658;23.350;2022-11-20T10:41:17;85.90;;;79.77;;
2035;SDS011;23642;42.658;23.350;2022-11-20T10:44:01;84.03;;;77.70;;
2035;SDS011;23642;42.658;23.350;2022-11-20T10:46:34;87.63;;;80.97;;
2035;SDS011;23642;42.658;23.350;2022-11-20T10:49:12;84.73;;;78.63;;
2035;SDS011;23642;42.658;23.350;2022-11-20T10:51:45;86.17;;;79.60;;
2035;SDS011;23642;42.658;23.350;2022-11-20T10:54:28;85.90;;;79.80;;
2035;SDS011;23642;42.658;23.350;2022-11-20T10:57:05;83.33;;;77.27;;
2035;SDS011;23642;42.658;23.350;2022-11-20T10:59:47;85.47;;;79.27;;
2035;SDS011;23642;42.658;23.350;2022-11-20T11:02:39;85.53;;;79.37;;
2035;SDS011;23642;42.658;23.350;2022-11-20T11:05:13;88.50;;;81.70;;
2035;SDS011;23642;42.658;23.350;2022-11-20T11:07:49;83.30;;;77.40;;
2035;SDS011;23642;42.658;23.350;2022-11-20T11:10:21;80.90;;;74.53;;
2035;SDS011;23642;42.658;23.350;2022-11-20T11:12:53;79.77;;;73.67;;
2035;SDS011;23642;42.658;23.350;2022-11-20T11:15:28;75.87;;;69.57;;
2035;SDS011;23642;42.658;23.350;2022-11-20T11:18:05;72.90;;;67.90;;
2035;SDS011;23642;42.658;23.350;2022-11-20T11:20:35;91.00;;;84.57;;
2035;SDS011;23642;42.658;23.350;2022-11-20T11:23:03;91.50;;;85.20;;
2035;SDS011;23642;42.658;23.350;2022-11-20T11:25:31;84.83;;;78.83;;
2035;SDS011;23642;42.658;23.350;2022-11-20T11:30:47;87.13;;;81.17;;
2035;SDS011;23642;42.658;23.350;2022-11-20T11:33:18;82.50;;;76.90;;
2035;SDS011;23642;42.658;23.350;2022-11-20T11:35:47;79.57;;;74.07;;
2035;SDS011;23642;42.658;23.350;2022-11-20T11:38:21;79.67;;;74.23;;
2035;SDS011;23642;42.658;23.350;2022-11-20T11:40:55;78.90;;;73.40;;
2035;SDS011;23642;42.658;23.350;2022-11-20T11:43:24;82.50;;;76.70;;
2035;SDS011;23642;42.658;23.350;2022-11-20T11:46:25;76.10;;;70.80;;
2035;SDS011;23642;42.658;23.350;2022-11-20T11:48:56;84.47;;;78.57;;
2035;SDS011;23642;42.658;23.350;2022-11-20T11:51:29;82.83;;;77.13;;
2035;SDS011;23642;42.658;23.350;2022-11-20T11:54:03;82.87;;;77.23;;
2035;SDS011;23642;42.658;23.350;2022-11-20T11:56:43;86.63;;;80.43;;
2035;SDS011;23642;42.658;23.350;2022-11-20T11:59:13;84.97;;;79.17;;
2035;SDS011;23642;42.658;23.350;2022-11-20T12:05:26;90.00;;;83.70;;
2035;SDS011;23642;42.658;23.350;2022-11-20T12:07:57;91.40;;;84.83;;
2035;SDS011;23642;42.658;23.350;2022-11-20T12:10:33;88.23;;;81.77;;
2035;SDS011;23642;42.658;23.350;2022-11-20T12:16:05;88.17;;;81.90;;
2035;SDS011;23642;42.658;23.350;2022-11-20T12:18:36;86.90;;;80.93;;
2035;SDS011;23642;42.658;23.350;2022-11-20T12:21:07;88.80;;;82.50;;
2035;SDS011;23642;42.658;23.350;2022-11-20T12:23:51;85.03;;;79.13;;
2035;SDS011;23642;42.658;23.350;2022-11-20T12:26:35;89.90;;;83.60;;
2035;SDS011;23642;42.658;23.350;2022-11-20T12:29:14;90.33;;;83.83;;
2035;SDS011;23642;42.658;23.350;2022-11-20T12:32:04;89.07;;;82.83;;
2035;SDS011;23642;42.658;23.350;2022-11-20T12:34:54;83.13;;;77.23;;
2035;SDS011;23642;42.658;23.350;2022-11-20T12:37:35;80.83;;;75.17;;
2035;SDS011;23642;42.658;23.350;2022-11-20T12:40:18;86.70;;;80.80;;
2035;SDS011;23642;42.658;23.350;2022-11-20T12:42:57;86.70;;;80.53;;
2035;SDS011;23642;42.658;23.350;2022-11-20T12:46:09;80.87;;;74.13;;
2035;SDS011;23642;42.658;23.350;2022-11-20T12:48:51;81.13;;;74.73;;
2035;SDS011;23642;42.658;23.350;2022-11-20T12:51:34;73.47;;;68.17;;
2035;SDS011;23642;42.658;23.350;2022-11-20T12:57:20;76.70;;;71.47;;
2035;SDS011;23642;42.658;23.350;2022-11-20T13:00:01;80.00;;;74.30;;
2035;SDS011;23642;42.658;23.350;2022-11-20T13:02:53;78.10;;;72.50;;
2035;SDS011;23642;42.658;23.350;2022-11-20T13:05:37;76.73;;;71.43;;
2035;SDS011;23642;42.658;23.350;2022-11-20T13:08:16;75.63;;;70.30;;
2035;SDS011;23642;42.658;23.350;2022-11-20T13:10:51;78.73;;;73.13;;
2035;SDS011;23642;42.658;23.350;2022-11-20T13:13:35;79.57;;;73.87;;
2035;SDS011;23642;42.658;23.350;2022-11-20T13:16:11;82.73;;;76.63;;
2035;SDS011;23642;42.658;23.350;2022-11-20T13:18:43;82.20;;;76.30;;
2035;SDS011;23642;42.658;23.350;2022-11-20T13:21:19;84.57;;;78.37;;
2035;SDS011;23642;42.658;23.350;2022-11-20T13:23:53;81.40;;;75.77;;
2035;SDS011;23642;42.658;23.350;2022-11-20T13:26:32;79.93;;;74.43;;
2035;SDS011;23642;42.658;23.350;2022-11-20T13:29:00;78.83;;;73.23;;
2035;SDS011;23642;42.658;23.350;2022-11-20T13:35:01;74.77;;;69.37;;
2035;SDS011;23642;42.658;23.350;2022-11-20T13:37:32;75.77;;;70.37;;
2035;SDS011;23642;42.658;23.350;2022-11-20T13:40:13;78.30;;;72.80;;
2035;SDS011;23642;42.658;23.350;2022-11-20T13:43:00;75.77;;;70.07;;
2035;SDS011;23642;42.658;23.350;2022-11-20T13:45:31;76.00;;;70.60;;
2035;SDS011;23642;42.658;23.350;2022-11-20T13:48:02;77.53;;;71.50;;
2035;SDS011;23642;42.658;23.350;2022-11-20T13:50:46;76.13;;;70.73;;
2035;SDS011;23642;42.658;23.350;2022-11-20T13:53:23;75.67;;;70.37;;
2035;SDS011;23642;42.658;23.350;2022-11-20T13:56:07;76.00;;;70.67;;
2035;SDS011;23642;42.658;23.350;2022-11-20T13:58:49;75.97;;;70.43;;
2035;SDS011;23642;42.658;23.350;2022-11-20T14:01:26;76.63;;;71.33;;
2035;SDS011;23642;42.658;23.350;2022-11-20T14:03:59;78.97;;;73.20;;
2035;SDS011;23642;42.658;23.350;2022-11-20T14:06:34;75.13;;;69.43;;
2035;SDS011;23642;42.658;23.350;2022-11-20T14:09:10;76.40;;;70.93;;
2035;SDS011;23642;42.658;23.350;2022-11-20T14:11:52;74.17;;;68.87;;
2035;SDS011;23642;42.658;23.350;2022-11-20T14:14:34;75.37;;;69.83;;
2035;SDS011;23642;42.658;23.350;2022-11-20T14:17:05;76.17;;;70.60;;
2035;SDS011;23642;42.658;23.350;2022-11-20T14:19:46;74.80;;;69.40;;
2035;SDS011;23642;42.658;23.350;2022-11-20T14:22:19;76.07;;;70.37;;
2035;SDS011;23642;42.658;23.350;2022-11-20T14:25:06;76.97;;;71.33;;
2035;SDS011;23642;42.658;23.350;2022-11-20T14:27:59;75.57;;;70.17;;
2035;SDS011;23642;42.658;23.350;2022-11-20T14:30:37;76.80;;;71.03;;
2035;SDS011;23642;42.658;23.350;2022-11-20T14:33:16;76.67;;;71.07;;
2035;SDS011;23642;42.658;23.350;2022-11-20T14:35:51;75.60;;;70.20;;
2035;SDS011;23642;42.658;23.350;2022-11-20T14:38:28;76.13;;;70.17;;
2035;SDS011;23642;42.658;23.350;2022-11-20T14:41:20;76.60;;;70.50;;
2035;SDS011;23642;42.658;23.350;2022-11-20T14:43:59;73.90;;;68.43;;
2035;SDS011;23642;42.658;23.350;2022-11-20T14:46:31;75.00;;;69.27;;
2035;SDS011;23642;42.658;23.350;2022-11-20T14:49:08;73.30;;;67.90;;
2035;SDS011;23642;42.658;23.350;2022-11-20T14:51:57;73.90;;;68.53;;
2035;SDS011;23642;42.658;23.350;2022-11-20T14:54:45;74.70;;;69.20;;
2035;SDS011;23642;42.658;23.350;2022-11-20T14:57:32;73.33;;;67.93;;
2035;SDS011;23642;42.658;23.350;2022-11-20T15:02:48;71.53;;;66.27;;
2035;SDS011;23642;42.658;23.350;2022-11-20T15:05:19;70.17;;;65.17;;
2035;SDS011;23642;42.658;23.350;2022-11-20T15:08:03;73.13;;;67.87;;
2035;SDS011;23642;42.658;23.350;2022-11-20T15:10:35;75.27;;;69.20;;
2035;SDS011;23642;42.658;23.350;2022-11-20T15:13:10;76.60;;;71.20;;
2035;SDS011;23642;42.658;23.350;2022-11-20T15:15:43;76.73;;;71.43;;
2035;SDS011;23642;42.658;23.350;2022-11-20T15:18:15;75.10;;;69.70;;
2035;SDS011;23642;42.658;23.350;2022-11-20T15:20:46;75.97;;;70.53;;
2035;SDS011;23642;42.658;23.350;2022-11-20T15:23:20;77.37;;;71.83;;
2035;SDS011;23642;42.658;23.350;2022-11-20T15:25:47;77.33;;;71.87;;
2035;SDS011;23642;42.658;23.350;2022-11-20T15:28:17;73.67;;;68.50;;
2035;SDS011;23642;42.658;23.350;2022-11-20T15:30:46;78.07;;;72.40;;
2035;SDS011;23642;42.658;23.350;2022-11-20T15:33:18;76.67;;;71.30;;
2035;SDS011;23642;42.658;23.350;2022-11-20T15:35:47;75.87;;;70.60;;
2035;SDS011;23642;42.658;23.350;2022-11-20T15:38:17;75.23;;;70.10;;